This is the latest recevied weather packets stored in our database for station/object KO4ZGL-13. If no packets are shown the sender has not sent any weather packets the latest 1 day(s).
| Time | Temp. | Humidity | Pressure | Rain* | Wind** | Luminosity | Snow |
|---|---|---|---|---|---|---|---|
| 1777989494 | 22.78° C | 70% | 1018.7 hPa | 0 mm | 0.45 m/s, 313° | 568 W/m² | - |
| 1777989190 | 22.22° C | 69% | 1018.9 hPa | 0 mm | 0.89 m/s, 23° | 552 W/m² | - |
| 1777988886 | 21.67° C | 72% | 1018.6 hPa | 0 mm | 0.89 m/s, 30° | 532 W/m² | - |
| 1777988584 | 22.22° C | 71% | 1018.7 hPa | 0 mm | 0.89 m/s, 329° | 469 W/m² | - |
| 1777988280 | 22.22° C | 73% | 1018.8 hPa | 0 mm | 0 m/s | 496 W/m² | - |
| 1777987977 | 21.67° C | 75% | 1018.5 hPa | 0 mm | 0.45 m/s, 310° | 452 W/m² | - |
| 1777987672 | 21.11° C | 74% | 1018.7 hPa | 0 mm | 1.34 m/s, 327° | 311 W/m² | - |
| 1777987370 | 21.11° C | 75% | 1018.7 hPa | 0 mm | 0.45 m/s, 328° | 380 W/m² | - |
| 1777987067 | 21.11° C | 78% | 1018.5 hPa | 0 mm | 0 m/s | 356 W/m² | - |
| 1777986764 | 20° C | 81% | 1018.4 hPa | 0 mm | 0.45 m/s, 327° | 269 W/m² | - |
| 1777986462 | 19.44° C | 91% | 1018.6 hPa | 0 mm | 0 m/s | 146 W/m² | - |
| 1777986160 | 18.89° C | 95% | 1018.6 hPa | 0 mm | 0 m/s | 131 W/m² | - |
| 1777985857 | 17.22° C | 97% | 1018.6 hPa | 0 mm | 0 m/s | 112 W/m² | - |
| 1777985554 | 16.11° C | 97% | 1018.6 hPa | 0 mm | 0 m/s | 92 W/m² | - |
| 1777985251 | 15.56° C | 98% | 1018.5 hPa | 0 mm | 0 m/s | 46 W/m² | - |
| 1777984948 | 15° C | 98% | 1018.6 hPa | 0 mm | 0 m/s | 45 W/m² | - |
| 1777984643 | 14.44° C | 98% | 1018.6 hPa | 0 mm | 0 m/s | 41 W/m² | - |
| 1777984340 | 13.89° C | 98% | 1018.6 hPa | 0 mm | 0 m/s | 41 W/m² | - |
| 1777984037 | 13.89° C | 98% | 1018.6 hPa | 0 mm | 0 m/s | 69 W/m² | - |
| 1777983734 | 12.78° C | 98% | 1018.5 hPa | 0 mm | 0 m/s | 79 W/m² | - |
| 1777983430 | 12.22° C | 98% | 1018.6 hPa | 0 mm | 0 m/s | 41 W/m² | - |
| 1777983127 | 11.67° C | 98% | 1018.9 hPa | 0 mm | 0 m/s | 39 W/m² | - |
| 1777982824 | 11.67° C | 98% | 1018.5 hPa | 0 mm | 0 m/s | 34 W/m² | - |
| 1777982519 | 11.11° C | 98% | 1018.8 hPa | 0 mm | 0 m/s | 32 W/m² | - |
| 1777982213 | 11.11° C | 98% | 1018.5 hPa | 0 mm | 0 m/s | 32 W/m² | - |
* Rain latest hour (hover to see other rain measurements)
** Current wind speed in m/s (hover to see current wind gust speed)